sensor_id;sensor_type;location;lat;lon;timestamp;pressure;altitude;pressure_sealevel;temperature;humidity
4858;BME280;58975;51.978;8.472;2023-04-16T09:38:19;100893.97;;;9.10;100.00
4858;BME280;58975;51.978;8.472;2023-04-16T09:43:17;100903.78;;;9.09;100.00
4858;BME280;58975;51.978;8.472;2023-04-16T09:48:13;100908.56;;;9.17;100.00
4858;BME280;58975;51.978;8.472;2023-04-16T09:53:09;100900.94;;;9.37;100.00
4858;BME280;58975;51.978;8.472;2023-04-16T09:58:06;100909.72;;;9.52;100.00
4858;BME280;58975;51.978;8.472;2023-04-16T10:03:06;100913.09;;;9.54;100.00
4858;BME280;58975;51.978;8.472;2023-04-16T10:08:10;100920.78;;;9.71;100.00
4858;BME280;58975;51.978;8.472;2023-04-16T10:13:07;100921.00;;;9.68;100.00
4858;BME280;58975;51.978;8.472;2023-04-16T10:18:03;100924.19;;;9.86;100.00
4858;BME280;58975;51.978;8.472;2023-04-16T10:23:00;100930.59;;;9.83;100.00
4858;BME280;58975;51.978;8.472;2023-04-16T10:27:57;100928.44;;;9.88;100.00
4858;BME280;58975;51.978;8.472;2023-04-16T10:32:55;100932.94;;;10.26;100.00
4858;BME280;58975;51.978;8.472;2023-04-16T10:37:56;100930.03;;;10.41;100.00
4858;BME280;58975;51.978;8.472;2023-04-16T10:42:57;100939.53;;;10.20;100.00
4858;BME280;58975;51.978;8.472;2023-04-16T10:47:57;100938.50;;;10.96;100.00
4858;BME280;58975;51.978;8.472;2023-04-16T10:53:16;100937.59;;;9.97;100.00
4858;BME280;58975;51.978;8.472;2023-04-16T10:58:29;100944.00;;;9.94;100.00
4858;BME280;58975;51.978;8.472;2023-04-16T11:03:32;100940.16;;;9.98;100.00
4858;BME280;58975;51.978;8.472;2023-04-16T11:08:28;100949.53;;;9.91;100.00
4858;BME280;58975;51.978;8.472;2023-04-16T11:13:25;100945.91;;;9.80;100.00
4858;BME280;58975;51.978;8.472;2023-04-16T11:18:22;100941.41;;;9.55;100.00
4858;BME280;58975;51.978;8.472;2023-04-16T11:23:18;100951.44;;;9.25;100.00
4858;BME280;58975;51.978;8.472;2023-04-16T11:28:14;100943.03;;;9.31;100.00
4858;BME280;58975;51.978;8.472;2023-04-16T11:33:11;100942.69;;;9.62;100.00
4858;BME280;58975;51.978;8.472;2023-04-16T11:38:07;100948.44;;;9.56;100.00
4858;BME280;58975;51.978;8.472;2023-04-16T11:43:12;100957.16;;;9.58;100.00
4858;BME280;58975;51.978;8.472;2023-04-16T11:48:09;100957.47;;;9.66;100.00
4858;BME280;58975;51.978;8.472;2023-04-16T11:53:06;100959.88;;;9.44;100.00
4858;BME280;58975;51.978;8.472;2023-04-16T11:58:12;100959.06;;;9.56;100.00
4858;BME280;58975;51.978;8.472;2023-04-16T12:03:09;100966.41;;;9.53;100.00
4858;BME280;58975;51.978;8.472;2023-04-16T12:08:08;100955.81;;;9.90;100.00
4858;BME280;58975;51.978;8.472;2023-04-16T12:13:15;100963.78;;;9.90;100.00
4858;BME280;58975;51.978;8.472;2023-04-16T12:18:12;100961.69;;;10.33;100.00
4858;BME280;58975;51.978;8.472;2023-04-16T12:23:21;100956.66;;;10.54;100.00
4858;BME280;58975;51.978;8.472;2023-04-16T12:28:29;100954.88;;;10.42;100.00
4858;BME280;58975;51.978;8.472;2023-04-16T12:33:26;100968.72;;;10.22;100.00
4858;BME280;58975;51.978;8.472;2023-04-16T12:38:22;100966.78;;;10.24;100.00
4858;BME280;58975;51.978;8.472;2023-04-16T12:43:21;100971.34;;;9.96;100.00
4858;BME280;58975;51.978;8.472;2023-04-16T12:48:18;100973.06;;;10.10;100.00
4858;BME280;58975;51.978;8.472;2023-04-16T12:53:14;100981.09;;;10.23;100.00
4858;BME280;58975;51.978;8.472;2023-04-16T12:58:10;100981.59;;;10.40;100.00
4858;BME280;58975;51.978;8.472;2023-04-16T13:03:07;100975.41;;;10.27;100.00
4858;BME280;58975;51.978;8.472;2023-04-16T13:08:04;100984.88;;;10.44;100.00
4858;BME280;58975;51.978;8.472;2023-04-16T13:13:00;100977.66;;;10.46;100.00
4858;BME280;58975;51.978;8.472;2023-04-16T13:17:57;100975.25;;;10.67;100.00
4858;BME280;58975;51.978;8.472;2023-04-16T13:22:53;100976.25;;;10.40;100.00
4858;BME280;58975;51.978;8.472;2023-04-16T13:27:50;100982.13;;;10.46;100.00
4858;BME280;58975;51.978;8.472;2023-04-16T13:32:46;100979.91;;;10.27;100.00
4858;BME280;58975;51.978;8.472;2023-04-16T13:37:43;100976.34;;;10.14;100.00
4858;BME280;58975;51.978;8.472;2023-04-16T13:42:39;100973.09;;;10.23;100.00
4858;BME280;58975;51.978;8.472;2023-04-16T13:47:37;100978.41;;;10.23;100.00
4858;BME280;58975;51.978;8.472;2023-04-16T13:52:35;100975.19;;;10.43;100.00
4858;BME280;58975;51.978;8.472;2023-04-16T13:57:31;100971.47;;;10.46;100.00
4858;BME280;58975;51.978;8.472;2023-04-16T14:02:28;100968.25;;;10.66;100.00
4858;BME280;58975;51.978;8.472;2023-04-16T14:07:24;100969.97;;;10.90;100.00
4858;BME280;58975;51.978;8.472;2023-04-16T14:12:22;100968.13;;;11.04;100.00
4858;BME280;58975;51.978;8.472;2023-04-16T14:17:18;100972.44;;;10.94;100.00
4858;BME280;58975;51.978;8.472;2023-04-16T14:22:15;100965.75;;;11.12;100.00
4858;BME280;58975;51.978;8.472;2023-04-16T14:27:13;100960.72;;;10.83;100.00
4858;BME280;58975;51.978;8.472;2023-04-16T14:32:09;100971.84;;;10.77;100.00
4858;BME280;58975;51.978;8.472;2023-04-16T14:37:06;100972.25;;;10.71;100.00
4858;BME280;58975;51.978;8.472;2023-04-16T14:42:02;100966.50;;;10.77;100.00
4858;BME280;58975;51.978;8.472;2023-04-16T14:46:58;100967.63;;;10.86;100.00
4858;BME280;58975;51.978;8.472;2023-04-16T14:51:55;100966.66;;;10.87;100.00
4858;BME280;58975;51.978;8.472;2023-04-16T14:56:52;100960.91;;;10.93;100.00
4858;BME280;58975;51.978;8.472;2023-04-16T15:01:49;100969.00;;;10.91;100.00
4858;BME280;58975;51.978;8.472;2023-04-16T15:06:46;100974.53;;;11.01;100.00
4858;BME280;58975;51.978;8.472;2023-04-16T15:11:42;100965.69;;;11.01;100.00
4858;BME280;58975;51.978;8.472;2023-04-16T15:16:38;100970.31;;;11.10;100.00
4858;BME280;58975;51.978;8.472;2023-04-16T15:21:35;100965.44;;;11.04;100.00
4858;BME280;58975;51.978;8.472;2023-04-16T15:26:31;100968.91;;;11.17;100.00
4858;BME280;58975;51.978;8.472;2023-04-16T15:31:28;100967.50;;;11.24;100.00
4858;BME280;58975;51.978;8.472;2023-04-16T15:36:24;100969.22;;;11.25;100.00
4858;BME280;58975;51.978;8.472;2023-04-16T15:41:21;100972.25;;;11.08;100.00
4858;BME280;58975;51.978;8.472;2023-04-16T15:46:18;100971.06;;;11.12;100.00
4858;BME280;58975;51.978;8.472;2023-04-16T15:51:14;100963.88;;;11.25;100.00
4858;BME280;58975;51.978;8.472;2023-04-16T15:56:11;100961.25;;;11.36;100.00
4858;BME280;58975;51.978;8.472;2023-04-16T16:01:07;100974.63;;;11.47;100.00
4858;BME280;58975;51.978;8.472;2023-04-16T16:06:04;100969.09;;;11.61;100.00
4858;BME280;58975;51.978;8.472;2023-04-16T16:11:03;100978.09;;;11.60;100.00
4858;BME280;58975;51.978;8.472;2023-04-16T16:15:59;100980.38;;;11.65;100.00
4858;BME280;58975;51.978;8.472;2023-04-16T16:20:56;100986.78;;;11.51;100.00
4858;BME280;58975;51.978;8.472;2023-04-16T16:25:53;100984.00;;;11.29;100.00
4858;BME280;58975;51.978;8.472;2023-04-16T16:30:49;100992.97;;;11.28;100.00
4858;BME280;58975;51.978;8.472;2023-04-16T16:35:48;100988.69;;;11.25;100.00
4858;BME280;58975;51.978;8.472;2023-04-16T16:40:45;100992.13;;;11.27;100.00
4858;BME280;58975;51.978;8.472;2023-04-16T16:45:41;100991.53;;;11.11;100.00
4858;BME280;58975;51.978;8.472;2023-04-16T16:50:38;100994.31;;;11.10;100.00
4858;BME280;58975;51.978;8.472;2023-04-16T16:55:34;101000.50;;;11.10;100.00
4858;BME280;58975;51.978;8.472;2023-04-16T17:00:31;100999.63;;;11.10;100.00
4858;BME280;58975;51.978;8.472;2023-04-16T17:05:27;100998.84;;;10.97;100.00
4858;BME280;58975;51.978;8.472;2023-04-16T17:10:24;100994.69;;;10.93;100.00
4858;BME280;58975;51.978;8.472;2023-04-16T17:15:20;100997.91;;;10.98;100.00
4858;BME280;58975;51.978;8.472;2023-04-16T17:20:17;100999.28;;;10.90;100.00
4858;BME280;58975;51.978;8.472;2023-04-16T17:25:13;100991.75;;;10.84;100.00
4858;BME280;58975;51.978;8.472;2023-04-16T17:30:10;100994.81;;;10.78;100.00
4858;BME280;58975;51.978;8.472;2023-04-16T17:35:06;101004.75;;;10.76;100.00
4858;BME280;58975;51.978;8.472;2023-04-16T17:40:05;100999.53;;;10.75;100.00
4858;BME280;58975;51.978;8.472;2023-04-16T17:45:03;101003.38;;;10.71;100.00
4858;BME280;58975;51.978;8.472;2023-04-16T17:49:59;101015.97;;;10.69;100.00
4858;BME280;58975;51.978;8.472;2023-04-16T17:54:56;101015.56;;;10.62;100.00
4858;BME280;58975;51.978;8.472;2023-04-16T17:59:56;101013.22;;;10.58;100.00
4858;BME280;58975;51.978;8.472;2023-04-16T18:04:53;101023.44;;;10.51;100.00
4858;BME280;58975;51.978;8.472;2023-04-16T18:09:49;101024.94;;;10.42;100.00
4858;BME280;58975;51.978;8.472;2023-04-16T18:14:45;101024.09;;;10.42;100.00
4858;BME280;58975;51.978;8.472;2023-04-16T18:19:42;101037.72;;;10.37;100.00
4858;BME280;58975;51.978;8.472;2023-04-16T18:24:39;101033.25;;;10.38;100.00
4858;BME280;58975;51.978;8.472;2023-04-16T18:29:35;101047.50;;;10.37;100.00
4858;BME280;58975;51.978;8.472;2023-04-16T18:34:35;101045.72;;;10.37;100.00
4858;BME280;58975;51.978;8.472;2023-04-16T18:39:32;101053.78;;;10.36;100.00
4858;BME280;58975;51.978;8.472;2023-04-16T18:44:28;101060.50;;;10.29;100.00
4858;BME280;58975;51.978;8.472;2023-04-16T18:49:25;101063.38;;;10.26;100.00
4858;BME280;58975;51.978;8.472;2023-04-16T18:54:21;101067.94;;;10.24;100.00
4858;BME280;58975;51.978;8.472;2023-04-16T18:59:18;101070.72;;;10.22;100.00
4858;BME280;58975;51.978;8.472;2023-04-16T19:04:14;101066.03;;;10.26;100.00
4858;BME280;58975;51.978;8.472;2023-04-16T19:09:11;101083.91;;;10.24;100.00
4858;BME280;58975;51.978;8.472;2023-04-16T19:14:08;101081.69;;;10.18;100.00
4858;BME280;58975;51.978;8.472;2023-04-16T19:19:04;101072.69;;;10.06;100.00
4858;BME280;58975;51.978;8.472;2023-04-16T19:24:01;101080.25;;;10.00;100.00
4858;BME280;58975;51.978;8.472;2023-04-16T19:28:58;101082.22;;;9.96;100.00
4858;BME280;58975;51.978;8.472;2023-04-16T19:33:54;101088.53;;;9.95;100.00
4858;BME280;58975;51.978;8.472;2023-04-16T19:38:51;101087.16;;;10.02;100.00
4858;BME280;58975;51.978;8.472;2023-04-16T19:43:47;101088.09;;;10.01;100.00
4858;BME280;58975;51.978;8.472;2023-04-16T19:48:43;101087.66;;;9.94;100.00
4858;BME280;58975;51.978;8.472;2023-04-16T19:53:40;101098.41;;;9.93;100.00
4858;BME280;58975;51.978;8.472;2023-04-16T19:58:37;101093.22;;;9.91;100.00
4858;BME280;58975;51.978;8.472;2023-04-16T20:03:34;101098.72;;;9.88;100.00
4858;BME280;58975;51.978;8.472;2023-04-16T20:08:30;101102.34;;;9.87;100.00
4858;BME280;58975;51.978;8.472;2023-04-16T20:13:27;101100.41;;;9.89;100.00
4858;BME280;58975;51.978;8.472;2023-04-16T20:18:23;101103.94;;;9.90;100.00
4858;BME280;58975;51.978;8.472;2023-04-16T20:23:23;101094.16;;;9.90;100.00
4858;BME280;58975;51.978;8.472;2023-04-16T20:28:19;101097.38;;;9.95;100.00
4858;BME280;58975;51.978;8.472;2023-04-16T20:33:16;101091.88;;;9.84;100.00
4858;BME280;58975;51.978;8.472;2023-04-16T20:38:13;101103.16;;;9.75;100.00
4858;BME280;58975;51.978;8.472;2023-04-16T20:43:09;101099.06;;;9.70;100.00
4858;BME280;58975;51.978;8.472;2023-04-16T20:48:09;101094.91;;;9.66;100.00
4858;BME280;58975;51.978;8.472;2023-04-16T20:53:07;101094.56;;;9.58;100.00
4858;BME280;58975;51.978;8.472;2023-04-16T20:58:03;101087.94;;;9.50;100.00
4858;BME280;58975;51.978;8.472;2023-04-16T21:02:59;101099.72;;;9.46;100.00
4858;BME280;58975;51.978;8.472;2023-04-16T21:07:56;101106.41;;;9.39;100.00
4858;BME280;58975;51.978;8.472;2023-04-16T21:12:52;101106.69;;;9.35;100.00
4858;BME280;58975;51.978;8.472;2023-04-16T21:17:49;101118.19;;;9.35;100.00
4858;BME280;58975;51.978;8.472;2023-04-16T21:22:45;101126.25;;;9.34;100.00
4858;BME280;58975;51.978;8.472;2023-04-16T21:27:42;101128.25;;;9.30;100.00
4858;BME280;58975;51.978;8.472;2023-04-16T21:32:38;101127.59;;;9.27;100.00
4858;BME280;58975;51.978;8.472;2023-04-16T21:37:35;101124.34;;;9.22;100.00
4858;BME280;58975;51.978;8.472;2023-04-16T21:42:32;101118.66;;;9.14;100.00
4858;BME280;58975;51.978;8.472;2023-04-16T21:47:29;101127.25;;;9.05;100.00
4858;BME280;58975;51.978;8.472;2023-04-16T21:52:25;101119.81;;;9.10;100.00
4858;BME280;58975;51.978;8.472;2023-04-16T21:57:21;101117.75;;;9.00;100.00
4858;BME280;58975;51.978;8.472;2023-04-16T22:02:18;101118.91;;;8.96;100.00
4858;BME280;58975;51.978;8.472;2023-04-16T22:07:14;101123.06;;;8.86;100.00
4858;BME280;58975;51.978;8.472;2023-04-16T22:12:12;101123.44;;;8.80;100.00
4858;BME280;58975;51.978;8.472;2023-04-16T22:17:08;101123.66;;;8.77;100.00
4858;BME280;58975;51.978;8.472;2023-04-16T22:22:05;101123.16;;;8.71;100.00
4858;BME280;58975;51.978;8.472;2023-04-16T22:27:01;101124.41;;;8.65;100.00
4858;BME280;58975;51.978;8.472;2023-04-16T22:31:58;101128.38;;;8.58;100.00
4858;BME280;58975;51.978;8.472;2023-04-16T22:36:56;101133.84;;;8.55;100.00
4858;BME280;58975;51.978;8.472;2023-04-16T22:41:52;101130.06;;;8.45;100.00
4858;BME280;58975;51.978;8.472;2023-04-16T22:46:48;101126.06;;;8.38;100.00
4858;BME280;58975;51.978;8.472;2023-04-16T22:51:45;101128.03;;;8.34;100.00
4858;BME280;58975;51.978;8.472;2023-04-16T22:56:41;101136.09;;;8.33;100.00
4858;BME280;58975;51.978;8.472;2023-04-16T23:01:38;101133.78;;;8.27;100.00
4858;BME280;58975;51.978;8.472;2023-04-16T23:06:34;101129.50;;;8.24;100.00
4858;BME280;58975;51.978;8.472;2023-04-16T23:11:30;101129.75;;;8.20;100.00
4858;BME280;58975;51.978;8.472;2023-04-16T23:16:27;101133.28;;;8.20;100.00
4858;BME280;58975;51.978;8.472;2023-04-16T23:21:24;101139.63;;;8.18;100.00
4858;BME280;58975;51.978;8.472;2023-04-16T23:26:21;101133.53;;;8.16;100.00
4858;BME280;58975;51.978;8.472;2023-04-16T23:31:17;101134.66;;;8.12;100.00
4858;BME280;58975;51.978;8.472;2023-04-16T23:36:14;101132.31;;;8.07;100.00
4858;BME280;58975;51.978;8.472;2023-04-16T23:41:10;101135.81;;;8.07;100.00
4858;BME280;58975;51.978;8.472;2023-04-16T23:46:07;101141.69;;;8.13;100.00
4858;BME280;58975;51.978;8.472;2023-04-16T23:51:03;101136.56;;;8.09;100.00
4858;BME280;58975;51.978;8.472;2023-04-16T23:56:00;101140.56;;;8.17;100.00
